createdAt,value
2019-05-07T00:02:28.787Z,7.23
2019-05-07T00:05:02.630Z,9.50
2019-05-07T00:07:34.061Z,8.60
2019-05-07T00:10:06.347Z,9.60
2019-05-07T00:12:38.151Z,11.78
2019-05-07T00:15:09.861Z,9.95
2019-05-07T00:17:43.144Z,11.03
2019-05-07T00:20:16.724Z,21.85
2019-05-07T00:22:48.512Z,18.80
2019-05-07T00:25:20.208Z,16.03
2019-05-07T00:27:52.431Z,18.20
2019-05-07T00:30:24.322Z,18.42
2019-05-07T00:32:55.743Z,23.50
2019-05-07T00:35:29.139Z,20.40
2019-05-07T00:38:05.199Z,30.97
2019-05-07T00:40:53.638Z,39.33
2019-05-07T00:43:26.992Z,35.30
2019-05-07T00:46:02.258Z,33.85
2019-05-07T00:48:33.761Z,25.00
2019-05-07T00:51:25.274Z,30.50
2019-05-07T00:53:57.213Z,21.25
2019-05-07T00:56:28.947Z,22.45
2019-05-07T00:59:02.198Z,22.02
2019-05-07T01:01:34.775Z,16.20
2019-05-07T01:04:06.190Z,27.15
2019-05-07T01:06:38.008Z,15.68
2019-05-07T01:09:12.124Z,17.60
2019-05-07T01:11:43.178Z,17.50
2019-05-07T01:14:14.667Z,16.45
2019-05-07T01:16:46.521Z,16.20
2019-05-07T01:19:17.960Z,10.10
2019-05-07T01:21:52.331Z,8.70
2019-05-07T01:24:23.490Z,13.22
2019-05-07T01:26:55.197Z,11.55
2019-05-07T01:29:27.255Z,14.93
2019-05-07T01:32:03.797Z,12.35
2019-05-07T01:34:37.219Z,14.18
2019-05-07T01:37:08.806Z,14.10
2019-05-07T01:39:42.214Z,18.93
2019-05-07T01:42:13.939Z,16.52
2019-05-07T01:44:45.577Z,18.57
2019-05-07T01:47:17.398Z,16.37
2019-05-07T01:49:49.069Z,18.80
2019-05-07T01:52:22.638Z,15.65
2019-05-07T01:54:54.257Z,16.17
2019-05-07T01:57:27.244Z,13.90
2019-05-07T01:59:58.803Z,15.75
2019-05-07T02:02:38.639Z,17.60
2019-05-07T02:05:18.012Z,12.95
2019-05-07T02:07:52.151Z,16.77
2019-05-07T02:10:32.065Z,16.97
2019-05-07T02:13:03.807Z,15.08
2019-05-07T02:15:36.371Z,25.00
2019-05-07T02:18:07.999Z,10.97
2019-05-07T02:20:39.869Z,17.95
2019-05-07T02:23:12.804Z,14.98
2019-05-07T02:25:44.526Z,16.00
2019-05-07T02:28:16.274Z,14.37
2019-05-07T02:30:47.948Z,12.90
2019-05-07T02:33:22.770Z,10.23
2019-05-07T02:35:53.682Z,18.42
2019-05-07T02:38:27.313Z,23.40
2019-05-07T02:41:02.933Z,16.93
2019-05-07T02:43:34.406Z,16.65
2019-05-07T02:46:31.006Z,15.68
2019-05-07T02:48:58.873Z,14.10
2019-05-07T02:51:33.345Z,13.83
2019-05-07T02:54:24.133Z,14.68
2019-05-07T02:56:56.392Z,19.85
2019-05-07T02:59:27.979Z,15.38
2019-05-07T03:02:03.695Z,15.00
2019-05-07T03:04:33.908Z,17.87
2019-05-07T03:07:05.688Z,24.55
2019-05-07T03:09:37.392Z,16.97
2019-05-07T03:12:12.919Z,21.93
2019-05-07T03:14:43.919Z,17.70
2019-05-07T03:17:15.660Z,16.15
2019-05-07T03:19:48.953Z,20.30
2019-05-07T03:22:23.162Z,25.10
2019-05-07T03:24:55.446Z,23.00
2019-05-07T03:27:27.137Z,21.40
2019-05-07T03:30:09.439Z,22.00
2019-05-07T03:32:47.631Z,19.70
2019-05-07T03:35:27.385Z,20.95
2019-05-07T03:37:56.865Z,24.92
2019-05-07T03:40:32.675Z,20.08
2019-05-07T03:43:06.129Z,23.85
2019-05-07T03:45:54.136Z,20.70
2019-05-07T03:48:27.583Z,19.27
2019-05-07T03:50:59.241Z,19.42
2019-05-07T03:53:33.550Z,17.47
2019-05-07T03:56:04.749Z,29.60
2019-05-07T03:58:36.492Z,22.87
2019-05-07T04:01:08.210Z,22.58
2019-05-07T04:03:40.174Z,25.68
2019-05-07T04:06:12.739Z,28.60
2019-05-07T04:08:44.911Z,34.67
2019-05-07T04:11:16.475Z,25.65
2019-05-07T04:13:48.562Z,21.82
2019-05-07T04:18:53.093Z,26.35
2019-05-07T04:21:24.736Z,20.75
2019-05-07T04:24:14.729Z,22.22
2019-05-07T04:26:47.986Z,17.82
2019-05-07T04:29:22.891Z,20.85
2019-05-07T04:31:53.464Z,25.17
2019-05-07T04:34:44.554Z,23.27
2019-05-07T04:37:17.260Z,22.32
2019-05-07T04:39:54.947Z,29.27
2019-05-07T04:42:26.671Z,32.90
2019-05-07T04:44:58.398Z,32.15
2019-05-07T04:47:42.496Z,25.62
2019-05-07T04:50:09.114Z,24.55
2019-05-07T04:52:43.709Z,49.48
2019-05-07T04:55:14.862Z,31.25
2019-05-07T04:57:46.685Z,26.70
2019-05-07T05:00:18.615Z,31.33
2019-05-07T05:02:57.907Z,25.10
2019-05-07T05:05:32.738Z,34.50
2019-05-07T05:08:03.870Z,36.15
2019-05-07T05:10:35.619Z,30.35
2019-05-07T05:13:07.592Z,33.67
2019-05-07T05:15:39.117Z,31.50
2019-05-07T05:18:12.712Z,27.85
2019-05-07T05:20:46.170Z,36.42
2019-05-07T05:23:28.736Z,33.65
2019-05-07T05:26:01.957Z,30.62
2019-05-07T05:28:34.749Z,28.23
2019-05-07T05:31:07.502Z,23.73
2019-05-07T05:33:41.765Z,30.35
2019-05-07T05:36:12.865Z,27.90
2019-05-07T05:38:44.643Z,23.22
2019-05-07T05:41:16.333Z,31.70
2019-05-07T05:44:06.230Z,26.65
2019-05-07T05:46:37.987Z,22.75
2019-05-07T05:49:11.867Z,20.25
2019-05-07T05:51:45.273Z,30.37
2019-05-07T05:54:23.283Z,23.15
2019-05-07T05:57:08.720Z,19.37
2019-05-07T05:59:49.175Z,24.92
2019-05-07T06:02:33.211Z,22.25
2019-05-07T06:05:23.963Z,23.15
2019-05-07T06:07:57.204Z,24.43
2019-05-07T06:10:36.267Z,24.00
2019-05-07T06:13:18.533Z,19.77
2019-05-07T06:15:54.724Z,22.45
2019-05-07T06:18:27.790Z,23.38
2019-05-07T06:21:03.001Z,27.35
2019-05-07T06:23:36.240Z,22.95
2019-05-07T06:26:08.287Z,19.52
2019-05-07T06:28:42.544Z,19.07
2019-05-07T06:31:15.145Z,18.32
2019-05-07T06:33:46.828Z,14.33
2019-05-07T06:36:18.527Z,12.47
2019-05-07T06:38:53.136Z,12.05
2019-05-07T06:41:43.099Z,12.00
2019-05-07T06:44:19.153Z,11.53
2019-05-07T06:46:52.662Z,7.87
2019-05-07T06:49:24.553Z,10.35
2019-05-07T06:51:56.085Z,7.87
2019-05-07T06:54:28.807Z,10.88
2019-05-07T06:57:02.034Z,8.75
2019-05-07T06:59:35.263Z,15.50
2019-05-07T07:02:24.134Z,13.20
2019-05-07T07:05:06.714Z,12.18
2019-05-07T07:07:42.010Z,8.85
2019-05-07T07:10:14.954Z,7.72
2019-05-07T07:12:46.399Z,8.30
2019-05-07T07:15:18.249Z,10.40
2019-05-07T07:17:52.288Z,8.65
2019-05-07T07:20:23.766Z,5.08
2019-05-07T07:22:56.020Z,6.25
2019-05-07T07:25:27.568Z,5.80
2019-05-07T07:27:59.197Z,8.15
2019-05-07T07:30:38.237Z,13.28
2019-05-07T07:33:12.138Z,8.73
2019-05-07T07:35:44.074Z,7.60
2019-05-07T07:38:34.618Z,10.35
2019-05-07T07:41:13.111Z,10.68
2019-05-07T07:43:44.828Z,14.47
2019-05-07T07:46:16.798Z,9.38
2019-05-07T07:49:03.306Z,5.55
2019-05-07T07:51:37.256Z,10.20
2019-05-07T07:53:55.371Z,8.15
2019-05-07T07:56:49.055Z,5.33
2019-05-07T07:59:27.083Z,17.02
2019-05-07T08:02:03.044Z,6.20
2019-05-07T08:04:34.885Z,5.97
2019-05-07T08:07:06.648Z,5.33
2019-05-07T08:09:38.371Z,7.40
2019-05-07T08:12:12.723Z,8.20
2019-05-07T08:14:44.577Z,5.72
2019-05-07T08:17:16.124Z,8.23
2019-05-07T08:19:47.993Z,16.60
2019-05-07T08:22:19.445Z,7.60
2019-05-07T08:24:51.988Z,7.37
2019-05-07T08:27:23.665Z,17.67
2019-05-07T08:29:55.508Z,18.00
2019-05-07T08:32:43.791Z,16.52
2019-05-07T08:35:21.959Z,12.20
2019-05-07T08:37:53.711Z,10.88
2019-05-07T08:40:25.565Z,11.10
2019-05-07T08:45:46.699Z,17.70
2019-05-07T08:48:21.640Z,10.63
2019-05-07T08:50:53.220Z,8.23
2019-05-07T08:53:24.842Z,12.58
2019-05-07T08:58:27.493Z,7.33
2019-05-07T09:01:02.899Z,10.78
2019-05-07T09:03:43.159Z,8.48
2019-05-07T09:06:17.796Z,10.82
2019-05-07T09:08:49.470Z,15.75
2019-05-07T09:11:23.024Z,16.02
2019-05-07T09:13:54.661Z,14.18
2019-05-07T09:16:26.259Z,12.75
2019-05-07T09:18:58.113Z,8.45
2019-05-07T09:21:32.119Z,11.40
2019-05-07T09:24:04.529Z,7.65
2019-05-07T09:26:54.458Z,14.50
2019-05-07T09:29:27.784Z,10.40
2019-05-07T09:32:13.617Z,10.63
2019-05-07T09:34:46.767Z,15.23
2019-05-07T09:37:19.840Z,14.50
2019-05-07T09:39:51.941Z,12.05
2019-05-07T09:42:23.575Z,11.97
2019-05-07T09:44:55.401Z,19.60
2019-05-07T09:47:26.951Z,9.20
2019-05-07T09:50:04.543Z,12.55
2019-05-07T09:52:34.771Z,9.63
2019-05-07T09:55:16.636Z,6.05
2019-05-07T09:57:42.474Z,10.13
2019-05-07T10:00:15.272Z,11.63
2019-05-07T10:02:46.870Z,11.30
2019-05-07T10:05:18.735Z,13.50
2019-05-07T10:07:52.488Z,11.93
2019-05-07T10:10:24.017Z,12.53
2019-05-07T10:15:41.783Z,16.17
2019-05-07T10:18:15.449Z,10.32
2019-05-07T10:20:47.334Z,13.00
2019-05-07T10:23:23.137Z,5.05
2019-05-07T10:25:56.477Z,9.45
2019-05-07T10:28:28.088Z,12.45
2019-05-07T10:31:00.887Z,12.28
2019-05-07T10:33:32.731Z,10.93
2019-05-07T10:38:35.198Z,10.63
2019-05-07T10:41:07.486Z,10.60
2019-05-07T10:46:23.636Z,8.28
2019-05-07T10:48:59.499Z,12.90
2019-05-07T10:51:32.236Z,19.98
2019-05-07T10:54:03.969Z,16.23
2019-05-07T10:56:35.753Z,12.50
2019-05-07T10:59:07.574Z,16.77
2019-05-07T11:01:42.559Z,14.25
2019-05-07T11:04:14.099Z,11.15
2019-05-07T11:06:46.017Z,17.42
2019-05-07T11:09:17.555Z,14.68
2019-05-07T11:11:49.348Z,10.72
2019-05-07T11:17:04.195Z,21.15
2019-05-07T11:19:35.663Z,17.75
2019-05-07T11:22:07.359Z,27.32
2019-05-07T11:24:38.982Z,13.22
2019-05-07T11:27:11.967Z,26.60
2019-05-07T11:29:43.836Z,17.50
2019-05-07T11:32:15.680Z,14.53
2019-05-07T11:34:47.165Z,14.55
2019-05-07T11:37:18.951Z,17.48
2019-05-07T11:39:52.321Z,18.95
2019-05-07T11:42:25.381Z,22.42
2019-05-07T11:44:56.824Z,17.95
2019-05-07T11:47:32.953Z,17.35
2019-05-07T11:50:25.734Z,25.10
2019-05-07T11:52:58.933Z,16.73
2019-05-07T11:55:31.604Z,13.43
2019-05-07T11:58:03.299Z,16.15
2019-05-07T12:00:42.864Z,21.50
2019-05-07T12:03:14.463Z,21.17
2019-05-07T12:05:46.157Z,17.85
2019-05-07T12:08:17.786Z,16.10
2019-05-07T12:10:51.675Z,17.45
2019-05-07T12:13:22.658Z,17.12
2019-05-07T12:15:54.484Z,20.77
2019-05-07T12:18:26.251Z,17.92
2019-05-07T12:20:57.876Z,18.90
2019-05-07T12:23:29.751Z,24.18
2019-05-07T12:26:02.206Z,20.60
2019-05-07T12:28:34.298Z,18.32
2019-05-07T12:31:14.075Z,29.35
2019-05-07T12:33:53.483Z,12.13
2019-05-07T12:36:25.042Z,17.37
2019-05-07T12:38:57.030Z,15.75
2019-05-07T12:41:34.731Z,19.20
2019-05-07T12:44:08.078Z,14.80
2019-05-07T12:46:39.545Z,14.30
2019-05-07T12:49:12.033Z,19.10
2019-05-07T12:51:48.320Z,16.32
2019-05-07T12:54:30.328Z,16.55
2019-05-07T12:57:02.490Z,13.75
2019-05-07T12:59:34.387Z,19.23
2019-05-07T13:02:33.435Z,20.40
2019-05-07T13:04:52.144Z,25.10
2019-05-07T13:07:25.236Z,20.40
2019-05-07T13:09:57.118Z,30.52
2019-05-07T13:14:59.841Z,24.37
2019-05-07T13:17:33.813Z,32.45
2019-05-07T13:20:07.335Z,23.32
2019-05-07T13:22:38.686Z,36.77
2019-05-07T13:25:10.758Z,29.72
2019-05-07T13:27:42.933Z,29.07
2019-05-07T13:30:15.528Z,33.58
2019-05-07T13:32:48.302Z,36.28
2019-05-07T13:35:19.915Z,21.55
2019-05-07T13:38:04.722Z,24.23
2019-05-07T13:40:38.141Z,28.57
2019-05-07T13:43:23.254Z,35.08
2019-05-07T13:46:02.597Z,27.07
2019-05-07T13:48:36.889Z,28.92
2019-05-07T13:51:08.698Z,31.02
2019-05-07T13:53:40.187Z,32.28
2019-05-07T13:56:12.889Z,33.28
2019-05-07T13:58:44.681Z,34.98
2019-05-07T14:01:24.055Z,29.27
2019-05-07T14:03:55.987Z,30.20
2019-05-07T14:06:39.535Z,21.85
2019-05-07T14:09:14.507Z,28.30
2019-05-07T14:11:46.302Z,23.40
2019-05-07T14:14:17.949Z,23.75
2019-05-07T14:16:49.601Z,25.48
2019-05-07T14:19:22.520Z,25.75
2019-05-07T14:21:54.619Z,24.92
2019-05-07T14:24:26.283Z,23.73
2019-05-07T14:26:58.689Z,31.75
2019-05-07T14:29:32.062Z,20.08
2019-05-07T14:32:17.146Z,14.50
2019-05-07T14:35:09.185Z,11.10
2019-05-07T14:37:45.294Z,10.40
2019-05-07T14:40:17.177Z,18.87
2019-05-07T14:42:52.428Z,12.43
2019-05-07T14:45:23.926Z,11.85
2019-05-07T14:47:55.857Z,7.53
2019-05-07T14:50:27.546Z,11.97
2019-05-07T14:52:59.232Z,11.28
2019-05-07T14:55:34.810Z,10.82
2019-05-07T14:58:07.416Z,17.60
2019-05-07T15:00:39.028Z,12.45
2019-05-07T15:03:12.467Z,10.20
2019-05-07T15:05:44.687Z,18.52
2019-05-07T15:08:16.371Z,15.15
2019-05-07T15:10:49.485Z,10.08
2019-05-07T15:13:21.892Z,13.22
2019-05-07T15:18:25.919Z,17.45
2019-05-07T15:20:57.385Z,17.55
2019-05-07T15:23:30.904Z,14.20
2019-05-07T15:26:04.816Z,17.50
2019-05-07T15:28:38.031Z,14.60
2019-05-07T15:31:13.796Z,20.17
2019-05-07T15:33:45.538Z,20.68
2019-05-07T15:36:16.890Z,14.38
2019-05-07T15:38:48.994Z,14.68
2019-05-07T15:41:22.680Z,17.48
2019-05-07T15:43:53.804Z,12.70
2019-05-07T15:46:25.494Z,14.83
2019-05-07T15:48:57.089Z,19.57
2019-05-07T15:51:28.887Z,18.20
2019-05-07T15:54:03.497Z,27.13
2019-05-07T15:56:34.873Z,31.85
2019-05-07T15:59:06.656Z,19.60
2019-05-07T16:01:38.223Z,29.67
2019-05-07T16:04:19.915Z,32.93
2019-05-07T16:06:43.113Z,39.67
2019-05-07T16:09:15.117Z,29.98
2019-05-07T16:11:46.629Z,36.45
2019-05-07T16:14:22.521Z,37.80
2019-05-07T16:16:55.210Z,28.25
2019-05-07T16:19:28.716Z,42.93
2019-05-07T16:22:03.831Z,32.42
2019-05-07T16:24:36.131Z,34.53
2019-05-07T16:29:38.749Z,35.20
2019-05-07T16:32:11.128Z,36.68
2019-05-07T16:34:43.108Z,35.75
2019-05-07T16:37:14.949Z,33.45
2019-05-07T16:39:46.553Z,36.08
2019-05-07T16:42:21.675Z,38.08
2019-05-07T16:44:52.687Z,36.20
2019-05-07T16:47:26.760Z,31.60
2019-05-07T16:49:58.390Z,37.33
2019-05-07T16:52:34.745Z,39.25
2019-05-07T16:55:04.556Z,32.83
2019-05-07T16:57:42.388Z,34.90
2019-05-07T17:00:16.308Z,33.38
2019-05-07T17:02:51.641Z,28.65
2019-05-07T17:05:23.277Z,28.25
2019-05-07T17:07:59.677Z,27.87
2019-05-07T17:10:31.809Z,29.57
2019-05-07T17:13:03.677Z,34.50
2019-05-07T17:15:37.168Z,33.85
2019-05-07T17:18:08.886Z,20.10
2019-05-07T17:20:42.917Z,32.05
2019-05-07T17:23:14.504Z,27.70
2019-05-07T17:25:46.508Z,33.18
2019-05-07T17:28:19.433Z,28.17
2019-05-07T17:30:52.444Z,27.20
2019-05-07T17:33:24.962Z,34.60
2019-05-07T17:35:56.756Z,27.95
2019-05-07T17:38:28.671Z,25.35
2019-05-07T17:41:10.836Z,30.10
2019-05-07T17:43:35.546Z,28.70
2019-05-07T17:46:07.474Z,26.77
2019-05-07T17:48:39.512Z,37.95
2019-05-07T17:51:13.064Z,42.00
2019-05-07T17:53:56.807Z,21.57
2019-05-07T17:56:18.252Z,30.52
2019-05-07T17:58:52.097Z,174.32
2019-05-07T18:01:24.997Z,31.35
2019-05-07T18:03:56.861Z,31.23
2019-05-07T18:06:28.357Z,28.60
2019-05-07T18:09:02.754Z,32.28
2019-05-07T18:11:35.444Z,25.40
2019-05-07T18:14:07.731Z,33.23
2019-05-07T18:16:43.912Z,27.62
2019-05-07T18:19:15.640Z,35.17
2019-05-07T18:21:47.351Z,34.27
2019-05-07T18:24:19.348Z,30.50
2019-05-07T18:26:52.599Z,25.20
2019-05-07T18:29:24.594Z,33.55
2019-05-07T18:31:57.824Z,29.23
2019-05-07T18:34:29.286Z,39.53
2019-05-07T18:37:02.094Z,28.30
2019-05-07T18:39:34.059Z,28.15
2019-05-07T18:42:09.615Z,23.80
2019-05-07T18:44:41.767Z,29.67
2019-05-07T18:47:14.896Z,32.60
2019-05-07T18:49:46.575Z,23.77
2019-05-07T18:52:19.515Z,32.08
2019-05-07T18:54:52.041Z,28.95
2019-05-07T18:57:24.077Z,35.50
2019-05-07T18:59:55.598Z,30.40
2019-05-07T19:02:28.004Z,30.97
2019-05-07T19:04:59.680Z,25.00
2019-05-07T19:07:32.427Z,28.27
2019-05-07T19:10:05.155Z,37.13
2019-05-07T19:12:37.853Z,33.05
2019-05-07T19:15:12.412Z,34.65
2019-05-07T19:17:44.358Z,31.70
2019-05-07T19:20:16.012Z,30.30
2019-05-07T19:22:48.010Z,32.25
2019-05-07T19:25:19.866Z,29.63
2019-05-07T19:27:53.271Z,32.33
2019-05-07T19:30:25.369Z,40.03
2019-05-07T19:32:57.377Z,35.48
2019-05-07T19:35:29.020Z,37.23
2019-05-07T19:38:02.811Z,29.63
2019-05-07T19:40:35.649Z,36.77
2019-05-07T19:43:07.463Z,47.90
2019-05-07T19:48:12.432Z,47.40
2019-05-07T19:50:44.795Z,60.48
2019-05-07T19:53:16.675Z,67.22
2019-05-07T19:56:06.422Z,63.08
2019-05-07T19:58:37.890Z,70.97
2019-05-07T20:01:12.095Z,70.37
2019-05-07T20:03:43.853Z,60.52
2019-05-07T20:06:15.743Z,85.00
2019-05-07T20:08:47.254Z,129.55
2019-05-07T20:11:27.021Z,92.20
2019-05-07T20:13:58.684Z,81.87
2019-05-07T20:16:32.969Z,89.55
2019-05-07T20:19:03.911Z,74.62
2019-05-07T20:21:36.358Z,82.88
2019-05-07T20:24:08.266Z,75.87
2019-05-07T20:26:40.340Z,85.07
2019-05-07T20:29:12.412Z,79.82
2019-05-07T20:31:44.503Z,63.25
2019-05-07T20:34:15.971Z,57.43
2019-05-07T20:36:47.959Z,47.10
2019-05-07T20:39:19.439Z,47.80
2019-05-07T20:41:52.673Z,38.78
2019-05-07T20:44:25.263Z,43.90
2019-05-07T20:46:58.738Z,44.42
2019-05-07T20:49:32.038Z,38.05
2019-05-07T20:52:04.399Z,45.28
2019-05-07T20:54:49.834Z,35.25
2019-05-07T20:57:23.157Z,39.05
2019-05-07T20:59:56.237Z,40.17
2019-05-07T21:02:42.433Z,35.95
2019-05-07T21:05:02.973Z,32.33
2019-05-07T21:07:34.775Z,45.75
2019-05-07T21:10:07.208Z,43.17
2019-05-07T21:12:39.224Z,46.60
2019-05-07T21:17:43.663Z,43.83
2019-05-07T21:20:15.402Z,38.28
2019-05-07T21:22:48.008Z,44.70
2019-05-07T21:25:20.064Z,38.40
2019-05-07T21:27:53.125Z,38.42
2019-05-07T21:30:25.490Z,40.63
2019-05-07T21:35:28.377Z,40.98
2019-05-07T21:37:59.942Z,42.95
2019-05-07T21:40:32.145Z,34.10
2019-05-07T21:43:03.630Z,36.98
2019-05-07T21:45:35.829Z,37.20
2019-05-07T21:48:07.483Z,30.55
2019-05-07T21:50:39.523Z,33.58
2019-05-07T21:53:13.684Z,38.95
2019-05-07T21:56:01.726Z,29.15
2019-05-07T21:58:34.691Z,30.95
2019-05-07T22:01:08.202Z,26.90
2019-05-07T22:03:43.223Z,30.23
2019-05-07T22:06:15.206Z,31.07
2019-05-07T22:08:46.844Z,32.23
2019-05-07T22:11:18.573Z,35.98
2019-05-07T22:13:54.418Z,32.08
2019-05-07T22:16:23.892Z,42.65
2019-05-07T22:18:55.575Z,33.90
2019-05-07T22:21:29.231Z,43.75
2019-05-07T22:24:02.782Z,34.08
2019-05-07T22:26:34.372Z,35.92
2019-05-07T22:29:06.021Z,36.38
2019-05-07T22:31:48.641Z,31.25
2019-05-07T22:34:22.312Z,34.18
2019-05-07T22:36:55.641Z,30.62
2019-05-07T22:39:45.343Z,26.48
2019-05-07T22:42:32.698Z,31.12
2019-05-07T22:45:05.418Z,31.05
2019-05-07T22:47:38.950Z,28.47
2019-05-07T22:52:43.321Z,35.92
2019-05-07T22:55:15.311Z,31.50
2019-05-07T22:57:49.048Z,41.00
2019-05-07T23:00:22.675Z,32.83
2019-05-07T23:02:54.424Z,30.90
2019-05-07T23:05:26.375Z,38.88
2019-05-07T23:07:58.405Z,32.45
2019-05-07T23:10:30.298Z,38.23
2019-05-07T23:13:02.408Z,31.80
2019-05-07T23:15:34.528Z,35.23
2019-05-07T23:18:06.213Z,37.25
2019-05-07T23:20:38.741Z,43.33
2019-05-07T23:23:13.945Z,44.63
2019-05-07T23:25:43.908Z,46.88
2019-05-07T23:28:15.503Z,41.85
2019-05-07T23:30:47.618Z,52.13
2019-05-07T23:33:19.671Z,39.27
2019-05-07T23:35:52.766Z,58.87
2019-05-07T23:38:24.524Z,57.58
2019-05-07T23:41:03.592Z,59.70
2019-05-07T23:43:35.371Z,68.97
2019-05-07T23:46:07.488Z,69.70
2019-05-07T23:48:39.197Z,73.45
2019-05-07T23:51:12.623Z,68.80
2019-05-07T23:53:44.584Z,68.65
2019-05-07T23:56:16.663Z,64.10
2019-05-07T23:58:48.570Z,67.53
